createdAt,value
2018-10-01T00:01:00.000Z,98432
2018-10-01T00:06:00.000Z,98426
2018-10-01T00:11:00.000Z,98424
2018-10-01T00:16:00.000Z,98411
2018-10-01T00:21:00.000Z,98403
2018-10-01T00:26:00.000Z,98401
2018-10-01T00:31:00.000Z,98396
2018-10-01T00:36:00.000Z,98397
2018-10-01T00:41:00.000Z,98381
2018-10-01T00:46:00.000Z,98379
2018-10-01T00:51:00.000Z,98373
2018-10-01T00:56:00.000Z,98374
2018-10-01T01:01:00.000Z,98371
2018-10-01T01:06:00.000Z,98368
2018-10-01T01:11:00.000Z,98355
2018-10-01T01:16:00.000Z,98358
2018-10-01T01:21:00.000Z,98343
2018-10-01T01:26:00.000Z,98347
2018-10-01T01:31:00.000Z,98342
2018-10-01T01:36:00.000Z,98337
2018-10-01T01:41:00.000Z,98329
2018-10-01T01:46:00.000Z,98318
2018-10-01T01:51:00.000Z,98312
2018-10-01T01:56:00.000Z,98314
2018-10-01T02:01:00.000Z,98317
2018-10-01T02:06:00.000Z,98306
2018-10-01T02:11:00.000Z,98305
2018-10-01T02:16:00.000Z,98283
2018-10-01T02:21:00.000Z,98281
2018-10-01T02:26:00.000Z,98276
2018-10-01T02:31:00.000Z,98276
2018-10-01T02:36:00.000Z,98264
2018-10-01T02:41:00.000Z,98262
2018-10-01T02:46:00.000Z,98265
2018-10-01T02:51:00.000Z,98264
2018-10-01T02:56:00.000Z,98262
2018-10-01T03:01:00.000Z,98255
2018-10-01T03:06:00.000Z,98246
2018-10-01T03:11:00.000Z,98239
2018-10-01T03:16:00.000Z,98259
2018-10-01T03:21:00.000Z,98243
2018-10-01T03:26:00.000Z,98242
2018-10-01T03:31:00.000Z,98236
2018-10-01T03:36:00.000Z,98244
2018-10-01T03:41:00.000Z,98247
2018-10-01T03:46:00.000Z,98226
2018-10-01T03:51:00.000Z,98236
2018-10-01T03:56:00.000Z,98231
2018-10-01T04:01:00.000Z,98245
2018-10-01T04:06:00.000Z,98246
2018-10-01T04:11:00.000Z,98240
2018-10-01T04:16:00.000Z,98228
2018-10-01T04:21:00.000Z,98229
2018-10-01T04:26:00.000Z,98227
2018-10-01T04:31:00.000Z,98226
2018-10-01T04:36:00.000Z,98214
2018-10-01T04:41:00.000Z,98219
2018-10-01T04:46:00.000Z,98217
2018-10-01T04:51:00.000Z,98224
2018-10-01T04:56:00.000Z,98219
2018-10-01T05:01:00.000Z,98211
2018-10-01T05:06:00.000Z,98216
2018-10-01T05:11:00.000Z,98207
2018-10-01T05:16:00.000Z,98215
2018-10-01T05:21:00.000Z,98216
2018-10-01T05:26:00.000Z,98218
2018-10-01T05:31:00.000Z,98216
2018-10-01T05:36:00.000Z,98210
2018-10-01T05:41:00.000Z,98218
2018-10-01T05:46:00.000Z,98229
2018-10-01T05:51:00.000Z,98228
2018-10-01T05:56:00.000Z,98218
2018-10-01T06:02:00.000Z,98226
2018-10-01T06:07:00.000Z,98224
2018-10-01T06:12:00.000Z,98223
2018-10-01T06:17:00.000Z,98231
2018-10-01T06:22:00.000Z,98232
2018-10-01T06:27:00.000Z,98228
2018-10-01T06:32:00.000Z,98233
2018-10-01T06:37:00.000Z,98241
2018-10-01T06:42:00.000Z,98238
2018-10-01T06:47:00.000Z,98229
2018-10-01T06:52:00.000Z,98240
2018-10-01T06:57:00.000Z,98242
2018-10-01T07:02:00.000Z,98250
2018-10-01T07:07:00.000Z,98246
2018-10-01T07:12:00.000Z,98239
2018-10-01T07:17:00.000Z,98242
2018-10-01T07:22:00.000Z,98244
2018-10-01T07:27:00.000Z,98240
2018-10-01T07:32:00.000Z,98237
2018-10-01T07:37:00.000Z,98239
2018-10-01T07:42:00.000Z,98254
2018-10-01T07:47:00.000Z,98254
2018-10-01T07:52:00.000Z,98266
2018-10-01T07:57:00.000Z,98257
2018-10-01T08:02:00.000Z,98252
2018-10-01T08:07:00.000Z,98256
2018-10-01T08:12:00.000Z,98263
2018-10-01T08:17:00.000Z,98265
2018-10-01T08:22:00.000Z,98252
2018-10-01T08:27:00.000Z,98260
2018-10-01T08:32:00.000Z,98258
2018-10-01T08:37:00.000Z,98262
2018-10-01T08:42:00.000Z,98263
2018-10-01T08:47:00.000Z,98267
2018-10-01T08:52:00.000Z,98260
2018-10-01T08:57:00.000Z,98262
2018-10-01T09:02:00.000Z,98263
2018-10-01T09:07:00.000Z,98259
2018-10-01T09:12:00.000Z,98246
2018-10-01T09:17:00.000Z,98242
2018-10-01T09:22:00.000Z,98250
2018-10-01T09:27:00.000Z,98232
2018-10-01T09:32:00.000Z,98243
2018-10-01T09:37:00.000Z,98243
2018-10-01T09:42:00.000Z,98240
2018-10-01T09:47:00.000Z,98258
2018-10-01T09:52:00.000Z,98259
2018-10-01T09:57:00.000Z,98252
2018-10-01T10:02:00.000Z,98245
2018-10-01T10:07:00.000Z,98248
2018-10-01T10:12:00.000Z,98244
2018-10-01T10:17:00.000Z,98251
2018-10-01T10:22:00.000Z,98246
2018-10-01T10:27:00.000Z,98255
2018-10-01T10:32:00.000Z,98263
2018-10-01T10:37:00.000Z,98270
2018-10-01T10:42:00.000Z,98263
2018-10-01T10:47:00.000Z,98264
2018-10-01T10:52:00.000Z,98261
2018-10-01T10:57:00.000Z,98257
2018-10-01T11:02:00.000Z,98252
2018-10-01T11:07:00.000Z,98243
2018-10-01T11:12:00.000Z,98244
2018-10-01T11:17:00.000Z,98242
2018-10-01T11:22:00.000Z,98243
2018-10-01T11:27:00.000Z,98231
2018-10-01T11:32:00.000Z,98228
2018-10-01T11:37:00.000Z,98232
2018-10-01T11:42:00.000Z,98225
2018-10-01T11:47:00.000Z,98225
2018-10-01T11:53:00.000Z,98217
2018-10-01T11:58:00.000Z,98213
2018-10-01T12:03:00.000Z,98220
2018-10-01T12:08:00.000Z,98213
2018-10-01T12:13:00.000Z,98211
2018-10-01T12:18:00.000Z,98213
2018-10-01T12:23:00.000Z,98218
2018-10-01T12:28:00.000Z,98221
2018-10-01T12:33:00.000Z,98221
2018-10-01T12:38:00.000Z,98216
2018-10-01T12:43:00.000Z,98229
2018-10-01T12:48:00.000Z,98236
2018-10-01T12:53:00.000Z,98232
2018-10-01T12:58:00.000Z,98243
2018-10-01T13:03:00.000Z,98244
2018-10-01T13:08:00.000Z,98246
2018-10-01T13:13:00.000Z,98243
2018-10-01T13:18:00.000Z,98238
2018-10-01T13:23:00.000Z,98249
2018-10-01T13:28:00.000Z,98246
2018-10-01T13:33:00.000Z,98256
2018-10-01T13:38:00.000Z,98270
2018-10-01T13:43:00.000Z,98284
2018-10-01T13:48:00.000Z,98272
2018-10-01T13:53:00.000Z,98278
2018-10-01T13:58:00.000Z,98276
2018-10-01T14:03:00.000Z,98284
2018-10-01T14:08:00.000Z,98285
2018-10-01T14:13:00.000Z,98287
2018-10-01T14:18:00.000Z,98288
2018-10-01T14:23:00.000Z,98294
2018-10-01T14:28:00.000Z,98300
2018-10-01T14:33:00.000Z,98314
2018-10-01T14:38:00.000Z,98321
2018-10-01T14:43:00.000Z,98326
2018-10-01T14:48:00.000Z,98323
2018-10-01T14:53:00.000Z,98316
2018-10-01T14:58:00.000Z,98317
2018-10-01T15:03:00.000Z,98335
2018-10-01T15:08:00.000Z,98336
2018-10-01T15:13:00.000Z,98341
2018-10-01T15:18:00.000Z,98336
2018-10-01T15:23:00.000Z,98340
2018-10-01T15:28:00.000Z,98343
2018-10-01T15:33:00.000Z,98359
2018-10-01T15:38:00.000Z,98356
2018-10-01T15:43:00.000Z,98361
2018-10-01T15:48:00.000Z,98358
2018-10-01T15:53:00.000Z,98367
2018-10-01T15:58:00.000Z,98369
2018-10-01T16:03:00.000Z,98373
2018-10-01T16:08:00.000Z,98377
2018-10-01T16:13:00.000Z,98380
2018-10-01T16:18:00.000Z,98384
2018-10-01T16:23:00.000Z,98382
2018-10-01T16:28:00.000Z,98406
2018-10-01T16:33:00.000Z,98398
2018-10-01T16:38:00.000Z,98406
2018-10-01T16:43:00.000Z,98414
2018-10-01T16:48:00.000Z,98420
2018-10-01T16:53:00.000Z,98438
2018-10-01T16:58:00.000Z,98448
2018-10-01T17:03:00.000Z,98456
2018-10-01T17:08:00.000Z,98465
2018-10-01T17:13:00.000Z,98480
2018-10-01T17:18:00.000Z,98499
2018-10-01T17:23:00.000Z,98496
2018-10-01T17:28:00.000Z,98509
2018-10-01T17:33:00.000Z,98506
2018-10-01T17:39:00.000Z,98502
2018-10-01T17:44:00.000Z,98503
2018-10-01T17:49:00.000Z,98498
2018-10-01T17:54:00.000Z,98508
2018-10-01T17:59:00.000Z,98502
2018-10-01T18:04:00.000Z,98498
2018-10-01T18:09:00.000Z,98513
2018-10-01T18:14:00.000Z,98521
2018-10-01T18:19:00.000Z,98543
2018-10-01T18:24:00.000Z,98551
2018-10-01T18:29:00.000Z,98560
2018-10-01T18:34:00.000Z,98569
2018-10-01T18:39:00.000Z,98567
2018-10-01T18:44:00.000Z,98571
2018-10-01T18:49:00.000Z,98575
2018-10-01T18:54:00.000Z,98574
2018-10-01T18:59:00.000Z,98568
2018-10-01T19:04:00.000Z,98576
2018-10-01T19:09:00.000Z,98571
2018-10-01T19:14:00.000Z,98574
2018-10-01T19:19:00.000Z,98584
2018-10-01T19:24:00.000Z,98596
2018-10-01T19:29:00.000Z,98603
2018-10-01T19:34:00.000Z,98605
2018-10-01T19:39:00.000Z,98605
2018-10-01T19:44:00.000Z,98605
2018-10-01T19:49:00.000Z,98618
2018-10-01T19:54:00.000Z,98605
2018-10-01T19:59:00.000Z,98605
2018-10-01T20:04:00.000Z,98607
2018-10-01T20:09:00.000Z,98603
2018-10-01T20:14:00.000Z,98598
2018-10-01T20:19:00.000Z,98611
2018-10-01T20:24:00.000Z,98620
2018-10-01T20:29:00.000Z,98632
2018-10-01T20:34:00.000Z,98650
2018-10-01T20:39:00.000Z,98644
2018-10-01T20:44:00.000Z,98658
2018-10-01T20:49:00.000Z,98647
2018-10-01T20:54:00.000Z,98659
2018-10-01T20:59:00.000Z,98656
2018-10-01T21:04:00.000Z,98648
2018-10-01T21:09:00.000Z,98655
2018-10-01T21:14:00.000Z,98660
2018-10-01T21:19:00.000Z,98668
2018-10-01T21:24:00.000Z,98686
2018-10-01T21:29:00.000Z,98696
2018-10-01T21:34:00.000Z,98703
2018-10-01T21:39:00.000Z,98692
2018-10-01T21:44:00.000Z,98707
2018-10-01T21:49:00.000Z,98708
2018-10-01T21:54:00.000Z,98715
2018-10-01T21:59:00.000Z,98726
2018-10-01T22:04:00.000Z,98716
2018-10-01T22:09:00.000Z,98716
2018-10-01T22:14:00.000Z,98717
2018-10-01T22:19:00.000Z,98721
2018-10-01T22:24:00.000Z,98726
2018-10-01T22:29:00.000Z,98723
2018-10-01T22:34:00.000Z,98715
2018-10-01T22:39:00.000Z,98709
2018-10-01T22:44:00.000Z,98715
2018-10-01T22:49:00.000Z,98712
2018-10-01T22:54:00.000Z,98717
2018-10-01T22:59:00.000Z,98719
2018-10-01T23:04:00.000Z,98734
2018-10-01T23:09:00.000Z,98721
2018-10-01T23:14:00.000Z,98736
2018-10-01T23:19:00.000Z,98739
2018-10-01T23:24:00.000Z,98735
2018-10-01T23:30:00.000Z,98726
2018-10-01T23:35:00.000Z,98717
2018-10-01T23:40:00.000Z,98716
2018-10-01T23:45:00.000Z,98741
2018-10-01T23:50:00.000Z,98746
2018-10-01T23:55:00.000Z,98753
